KLEE

Details ICAO KLEE
Name Leesburg Rgnl
Region United States
Timezone America/New_York (UTC-5.0)
Plans Departing 17
Arriving 5
Stats Elevation 77 ft / 23 m (AMSL)
Location 28.823083° -81.808723°
Runways 2
Magnetic Variation 6.141° W
Sunrise 2017-12-11 12:11:55 UTC / 2017-12-11 07:11:55 Local
Sunset 2017-12-11 22:32:11 UTC / 2017-12-11 17:32:11 Local
Advertisement - Login to hide

Runways

ID Width Length Bearing (true) Bearing (mag) Surface Threshold Offset Overrun Length
03 100 ft / 30 m 4,965 ft / 1,514 m 34.85° 40.99° Asphalt 299 ft / 91 m 0 ft / 0 m
13 100 ft / 30 m 5,003 ft / 1,525 m 129.96° 136.10° Asphalt 0 ft / 0 m 0 ft / 0 m
21 100 ft / 30 m 4,965 ft / 1,514 m 214.85° 220.99° Asphalt 310 ft / 94 m 0 ft / 0 m
31 100 ft / 30 m 5,003 ft / 1,525 m 309.96° 316.10° Asphalt 0 ft / 0 m 0 ft / 0 m

Map

Weather


0- 5 10 15 20 25 30 35+ Temperature / ° C

Clouds and Precipitation
Forecast for 2017-12-11 12:00 UTC. Updated 3 minutes ago

Ground ~20,000 ft ~40,000 ft Winds

METAR

KLEE 111053Z AUTO 00000KT 10SM CLR 06/03 A3030 RMK AO2 SLP260 T00560033

TAF

TAF KLEE 110520Z 1106/1206 32004KT P6SM SKC FM111500 35005KT P6SM SKC FM111800 29005KT P6SM SKC FM120000 VRB03KT P6SM SKC

Frequencies

Recorded 134.32 MHz ASOS
Approach 121.10 MHz ORLANDO APP/DEP
Unicom 122.72 MHz CTAF/UNICOM
Warning: Do not use this data for real-world aviation or navigation. No guarantee of current accuracy is given.